F34 weather

Firebaugh Airport
Firebaugh, California, United States

Public forecast

Using degrees Fahrenheit for public forecast. Weather courtesy of forecast.io.

Closest aviation weather report (METAR) to Firebaugh Airport

Closest report is Madera Municipal Airport, 18.6 nm (34.4 km) ENE. Retrieved 2020/01/20 19:41 UTC (15 minutes ago):

KMAE 201941Z AUTO 27003KT 3SM BR BKN006 08/06 A3007 RMK AO2 T00780061

Closest aviation forecast (TAF) to Firebaugh Airport

Closest forecast is Merced Regional Macready Field, 25.6 nm (47.4 km) N. Retrieved 2020/01/20 18:42 UTC (1 hour ago):

TAF KMCE 201739Z 2018/2118 00000KT 1SM BR OVC002 FM202000 VRB04KT 4SM BR SCT010 BKN150 FM210600 36003KT 2SM BR OVC050 FM210900 VRB02KT 1/2SM FG OVC005